createdAt,value
2022-10-12T00:00:41.022Z,78.41
2022-10-12T00:03:30.515Z,78.12
2022-10-12T00:06:30.868Z,78.54
2022-10-12T00:09:14.523Z,78.13
2022-10-12T00:12:09.432Z,78.27
2022-10-12T00:14:59.523Z,77.84
2022-10-12T00:17:41.770Z,78.42
2022-10-12T00:20:30.564Z,78.29
2022-10-12T00:23:13.778Z,78.60
2022-10-12T00:26:02.510Z,77.68
2022-10-12T00:28:44.892Z,78.14
2022-10-12T00:31:34.538Z,77.60
2022-10-12T00:34:17.816Z,78.18
2022-10-12T00:37:06.497Z,77.83
2022-10-12T00:39:55.568Z,77.89
2022-10-12T00:42:37.702Z,78.05
2022-10-12T00:45:27.537Z,77.83
2022-10-12T00:48:16.770Z,77.42
2022-10-12T00:50:59.527Z,77.25
2022-10-12T00:53:53.836Z,77.13
2022-10-12T00:56:40.787Z,76.98
2022-10-12T00:59:35.544Z,76.50
2022-10-12T01:02:18.787Z,76.59
2022-10-12T01:05:08.528Z,76.19
2022-10-12T01:07:50.785Z,76.59
2022-10-12T01:10:39.531Z,76.78
2022-10-12T01:13:22.782Z,76.01
2022-10-12T01:16:28.476Z,76.26
2022-10-12T01:19:25.418Z,76.00
2022-10-12T01:22:18.556Z,75.94
2022-10-12T01:25:08.821Z,76.13
2022-10-12T01:28:01.557Z,75.89
2022-10-12T01:30:51.855Z,76.00
2022-10-12T01:33:56.515Z,75.33
2022-10-12T01:36:55.552Z,74.79
2022-10-12T01:39:47.470Z,74.80
2022-10-12T01:42:44.549Z,75.27
2022-10-12T01:45:33.793Z,74.84
2022-10-12T01:48:15.510Z,74.80
2022-10-12T01:51:08.781Z,74.58
2022-10-12T01:54:06.496Z,73.58
2022-10-12T01:57:12.423Z,74.53
2022-10-12T02:00:21.493Z,74.45
2022-10-12T02:03:23.384Z,73.81
2022-10-12T02:06:21.488Z,74.16
2022-10-12T02:09:12.314Z,73.99
2022-10-12T02:12:05.567Z,73.47
2022-10-12T02:14:52.336Z,71.81
2022-10-12T02:17:41.591Z,71.80
2022-10-12T02:20:32.798Z,71.38
2022-10-12T02:23:17.572Z,70.86
2022-10-12T02:26:10.710Z,71.11
2022-10-12T02:28:53.755Z,70.39
2022-10-12T02:32:04.784Z,69.87
2022-10-12T02:34:55.563Z,70.83
2022-10-12T02:38:09.783Z,71.00
2022-10-12T02:41:00.497Z,69.69
2022-10-12T02:44:14.405Z,69.20
2022-10-12T02:47:04.496Z,68.13
2022-10-12T02:49:55.406Z,69.36
2022-10-12T02:52:46.496Z,65.64
2022-10-12T02:55:37.408Z,65.83
2022-10-12T02:58:26.510Z,65.12
2022-10-12T03:01:15.581Z,66.19
2022-10-12T03:03:57.796Z,65.63
2022-10-12T03:06:46.494Z,63.85
2022-10-12T03:09:35.498Z,66.65
2022-10-12T03:12:24.383Z,64.44
2022-10-12T03:15:13.535Z,63.27
2022-10-12T03:18:01.807Z,60.37
2022-10-12T03:20:44.503Z,61.96
2022-10-12T03:23:26.766Z,62.54
2022-10-12T03:26:15.542Z,64.01
2022-10-12T03:29:04.824Z,61.50
2022-10-12T03:31:48.518Z,60.70
2022-10-12T03:34:36.770Z,58.94
2022-10-12T03:37:18.495Z,62.62
2022-10-12T03:40:06.871Z,60.53
2022-10-12T03:42:49.507Z,60.35
2022-10-12T03:45:37.781Z,58.88
2022-10-12T03:48:20.512Z,61.80
2022-10-12T03:51:09.505Z,59.68
2022-10-12T03:53:51.786Z,60.51
2022-10-12T03:56:40.553Z,58.58
2022-10-12T03:59:22.786Z,59.76
2022-10-12T04:02:16.535Z,54.48
2022-10-12T04:05:05.485Z,54.11
2022-10-12T04:07:54.508Z,54.05
2022-10-12T04:10:36.811Z,52.44
2022-10-12T04:13:26.513Z,53.34
2022-10-12T04:16:20.475Z,54.56
2022-10-12T04:19:09.517Z,52.35
2022-10-12T04:21:51.805Z,54.14
2022-10-12T04:24:40.495Z,48.68
2022-10-12T04:27:22.797Z,51.73
2022-10-12T04:30:11.500Z,48.66
2022-10-12T04:32:53.809Z,45.89
2022-10-12T04:35:42.514Z,47.52
2022-10-12T04:38:24.820Z,45.00
2022-10-12T04:41:13.524Z,44.82
2022-10-12T04:43:55.778Z,45.68
2022-10-12T04:46:44.514Z,48.29
2022-10-12T04:49:26.804Z,43.56
2022-10-12T04:52:15.565Z,43.64
2022-10-12T04:54:57.806Z,45.26
2022-10-12T04:57:46.504Z,49.99
2022-10-12T05:00:35.572Z,46.51
2022-10-12T05:03:23.790Z,44.77
2022-10-12T05:06:12.588Z,43.45
2022-10-12T05:08:54.784Z,43.01
2022-10-12T05:11:43.501Z,47.08
2022-10-12T05:14:25.811Z,49.55
2022-10-12T05:17:14.555Z,46.37
2022-10-12T05:19:56.790Z,44.66
2022-10-12T05:22:45.579Z,41.31
2022-10-12T05:25:30.333Z,41.75
2022-10-12T05:28:19.566Z,44.41
2022-10-12T05:31:01.810Z,41.50
2022-10-12T05:33:50.575Z,45.24
2022-10-12T05:36:32.802Z,43.44
2022-10-12T05:39:21.556Z,41.73
2022-10-12T05:42:03.755Z,42.95
2022-10-12T05:44:52.506Z,43.54
2022-10-12T05:47:41.522Z,41.79
2022-10-12T05:50:31.594Z,42.86
2022-10-12T05:53:14.960Z,42.30
2022-10-12T05:56:07.884Z,41.44
2022-10-12T05:58:50.529Z,43.72
2022-10-12T06:01:39.568Z,42.14
2022-10-12T06:04:21.903Z,41.73
2022-10-12T06:07:10.521Z,47.32
2022-10-12T06:09:52.882Z,46.61
2022-10-12T06:12:41.465Z,46.75
2022-10-12T06:15:23.748Z,45.19
2022-10-12T06:18:12.542Z,45.43
2022-10-12T06:24:05.500Z,43.20
2022-10-12T06:26:47.799Z,42.46
2022-10-12T06:29:36.572Z,42.00
2022-10-12T06:32:18.790Z,47.02
2022-10-12T06:35:07.515Z,39.57
2022-10-12T06:37:56.772Z,39.66
2022-10-12T06:40:45.564Z,42.31
2022-10-12T06:43:28.778Z,45.41
2022-10-12T06:46:17.530Z,41.78
2022-10-12T06:48:59.839Z,41.45
2022-10-12T06:51:48.490Z,39.25
2022-10-12T06:54:30.957Z,46.42
2022-10-12T06:57:19.516Z,38.98
2022-10-12T07:00:01.763Z,42.57
2022-10-12T07:02:50.498Z,38.94
2022-10-12T07:05:46.364Z,43.67
2022-10-12T07:08:35.586Z,39.15
2022-10-12T07:11:20.773Z,39.70
2022-10-12T07:14:09.477Z,39.47
2022-10-12T07:16:58.392Z,43.77
2022-10-12T07:19:47.486Z,43.91
2022-10-12T07:22:29.796Z,41.91
2022-10-12T07:25:18.509Z,38.82
2022-10-12T07:28:00.817Z,39.99
2022-10-12T07:30:44.495Z,44.23
2022-10-12T07:33:33.098Z,42.33
2022-10-12T07:36:20.912Z,43.91
2022-10-12T07:39:09.831Z,38.44
2022-10-12T07:41:52.495Z,39.82
2022-10-12T07:44:41.548Z,38.78
2022-10-12T07:47:23.784Z,42.00
2022-10-12T07:50:12.476Z,39.84
2022-10-12T07:52:54.803Z,39.79
2022-10-12T07:55:43.540Z,41.96
2022-10-12T07:58:25.836Z,42.34
2022-10-12T08:01:15.562Z,41.56
2022-10-12T08:04:05.401Z,41.46
2022-10-12T08:07:00.491Z,42.00
2022-10-12T08:09:48.756Z,40.28
2022-10-12T08:12:31.484Z,41.59
2022-10-12T08:15:21.849Z,39.34
2022-10-12T08:18:04.575Z,39.59
2022-10-12T08:20:52.840Z,38.32
2022-10-12T08:23:35.485Z,40.98
2022-10-12T08:26:24.474Z,38.03
2022-10-12T08:29:06.767Z,39.86
2022-10-12T08:31:58.535Z,40.22
2022-10-12T08:34:40.810Z,39.15
2022-10-12T08:37:29.486Z,40.34
2022-10-12T08:40:11.759Z,38.21
2022-10-12T08:43:19.594Z,39.46
2022-10-12T08:46:08.776Z,39.16
2022-10-12T08:49:06.539Z,39.32
2022-10-12T08:51:57.761Z,39.72
2022-10-12T08:54:51.494Z,39.38
2022-10-12T08:57:33.760Z,39.14
2022-10-12T09:00:24.520Z,38.92
2022-10-12T09:03:18.775Z,39.09
2022-10-12T09:06:24.501Z,38.05
2022-10-12T09:09:50.492Z,39.04
2022-10-12T09:12:59.788Z,38.98
2022-10-12T09:15:59.554Z,38.63
2022-10-12T09:18:48.814Z,40.92
2022-10-12T09:21:40.483Z,40.57
2022-10-12T09:24:33.754Z,40.77
2022-10-12T09:27:28.472Z,40.57
2022-10-12T09:30:12.752Z,41.12
2022-10-12T09:33:18.500Z,41.58
2022-10-12T09:36:02.822Z,42.09
2022-10-12T09:38:51.495Z,42.17
2022-10-12T09:41:47.771Z,41.38
2022-10-12T09:44:42.517Z,41.57
2022-10-12T09:47:31.155Z,41.71
2022-10-12T09:50:20.486Z,42.75
2022-10-12T09:53:09.511Z,42.90
2022-10-12T09:56:56.379Z,43.59
2022-10-12T09:59:44.502Z,42.93
2022-10-12T10:02:34.474Z,43.73
2022-10-12T10:05:35.768Z,43.70
2022-10-12T10:08:30.481Z,43.39
2022-10-12T10:11:20.505Z,44.43
2022-10-12T10:14:09.824Z,44.50
2022-10-12T10:16:59.461Z,44.35
2022-10-12T10:19:41.744Z,43.79
2022-10-12T10:22:31.480Z,44.19
2022-10-12T10:25:28.811Z,44.17
2022-10-12T10:28:35.600Z,44.57
2022-10-12T10:31:30.380Z,45.38
2022-10-12T10:34:30.483Z,43.76
2022-10-12T10:37:29.742Z,44.75
2022-10-12T10:40:13.769Z,44.49
2022-10-12T10:43:10.598Z,45.87
2022-10-12T10:46:06.557Z,46.85
2022-10-12T10:49:44.420Z,46.97
2022-10-12T10:52:33.506Z,47.55
2022-10-12T10:55:29.763Z,46.66
2022-10-12T10:58:38.469Z,46.27
2022-10-12T11:01:42.598Z,47.88
2022-10-12T11:04:34.839Z,47.18
2022-10-12T11:07:38.504Z,46.73
2022-10-12T11:10:41.480Z,46.92
2022-10-12T11:13:32.783Z,46.36
2022-10-12T11:16:32.489Z,46.69
2022-10-12T11:19:43.351Z,47.77
2022-10-12T11:22:54.479Z,48.00
2022-10-12T11:25:57.810Z,47.78
2022-10-12T11:28:46.963Z,48.68
2022-10-12T11:32:00.529Z,48.57
2022-10-12T11:35:00.798Z,48.01
2022-10-12T11:37:56.486Z,47.63
2022-10-12T11:41:13.676Z,49.15
2022-10-12T11:44:36.403Z,48.98
2022-10-12T11:47:54.468Z,49.48
2022-10-12T11:50:58.961Z,49.79
2022-10-12T11:54:17.750Z,49.43
2022-10-12T11:57:05.547Z,50.50
2022-10-12T12:00:08.804Z,50.82
2022-10-12T12:03:00.494Z,50.56
2022-10-12T12:05:48.839Z,50.49
2022-10-12T12:08:49.566Z,51.28
2022-10-12T12:11:34.801Z,50.92
2022-10-12T12:14:29.567Z,52.14
2022-10-12T12:17:31.782Z,51.71
2022-10-12T12:20:57.670Z,52.83
2022-10-12T12:23:58.763Z,53.81
2022-10-12T12:26:55.511Z,54.17
2022-10-12T12:29:37.755Z,54.40
2022-10-12T12:32:27.538Z,53.97
2022-10-12T12:35:09.764Z,54.88
2022-10-12T12:38:11.492Z,55.35
2022-10-12T12:41:18.750Z,55.28
2022-10-12T12:44:11.502Z,56.61
2022-10-12T12:47:05.992Z,56.12
2022-10-12T12:50:05.501Z,56.57
2022-10-12T12:52:48.912Z,56.77
2022-10-12T12:56:05.490Z,57.51
2022-10-12T12:58:59.550Z,56.32
2022-10-12T13:02:09.599Z,58.33
2022-10-12T13:05:03.951Z,58.53
2022-10-12T13:08:15.472Z,57.01
2022-10-12T13:11:31.498Z,56.47
2022-10-12T13:14:35.529Z,56.85
2022-10-12T13:17:43.040Z,58.76
2022-10-12T13:20:39.506Z,58.66
2022-10-12T13:23:26.753Z,58.81
2022-10-12T13:26:17.490Z,59.43
2022-10-12T13:29:02.015Z,59.79
2022-10-12T13:31:54.808Z,59.81
2022-10-12T13:34:44.770Z,59.84
2022-10-12T13:37:39.532Z,59.72
2022-10-12T13:41:11.792Z,60.07
2022-10-12T13:44:04.480Z,60.35
2022-10-12T13:46:56.514Z,59.78
2022-10-12T13:49:47.817Z,61.09
2022-10-12T13:52:42.547Z,61.14
2022-10-12T13:55:33.768Z,61.11
2022-10-12T13:58:30.505Z,61.37
2022-10-12T14:01:14.804Z,61.94
2022-10-12T14:04:03.546Z,61.20
2022-10-12T14:07:05.405Z,61.36
2022-10-12T14:09:59.590Z,61.18
2022-10-12T14:12:51.510Z,61.44
2022-10-12T14:15:46.748Z,62.21
2022-10-12T14:18:52.485Z,61.45
2022-10-12T14:21:40.744Z,61.30
2022-10-12T14:24:27.786Z,60.93
2022-10-12T14:27:16.782Z,60.84
2022-10-12T14:30:03.497Z,60.26
2022-10-12T14:32:54.046Z,60.81
2022-10-12T14:35:40.964Z,60.96
2022-10-12T14:38:53.783Z,62.01
2022-10-12T14:41:51.539Z,62.17
2022-10-12T14:44:50.840Z,62.43
2022-10-12T14:47:50.514Z,62.68
2022-10-12T14:50:41.032Z,62.68
2022-10-12T14:53:23.476Z,63.11
2022-10-12T14:56:05.487Z,63.34
2022-10-12T14:58:53.748Z,64.04
2022-10-12T15:01:40.947Z,63.86
2022-10-12T15:04:24.671Z,63.95
2022-10-12T15:07:14.529Z,63.93
2022-10-12T15:09:57.437Z,64.00
2022-10-12T15:12:46.461Z,64.43
2022-10-12T15:15:43.489Z,64.82
2022-10-12T15:18:26.610Z,64.66
2022-10-12T15:21:16.815Z,64.98
2022-10-12T15:23:58.487Z,65.04
2022-10-12T15:26:47.388Z,65.16
2022-10-12T15:29:36.495Z,65.83
2022-10-12T15:32:20.712Z,65.97
2022-10-12T15:35:09.523Z,66.22
2022-10-12T15:37:58.810Z,66.19
2022-10-12T15:40:42.784Z,66.97
2022-10-12T15:43:34.747Z,66.81
2022-10-12T15:46:21.487Z,67.03
2022-10-12T15:49:10.984Z,67.53
2022-10-12T15:51:59.528Z,67.10
2022-10-12T15:54:45.517Z,67.93
2022-10-12T15:57:37.463Z,68.28
2022-10-12T16:00:27.120Z,68.14
2022-10-12T16:03:20.243Z,67.99
2022-10-12T16:06:14.530Z,67.65
2022-10-12T16:09:02.927Z,68.17
2022-10-12T16:11:45.505Z,67.52
2022-10-12T16:14:28.177Z,67.82
2022-10-12T16:17:17.627Z,68.03
2022-10-12T16:20:00.135Z,67.89
2022-10-12T16:22:50.497Z,67.70
2022-10-12T16:25:32.895Z,67.11
2022-10-12T16:28:21.534Z,66.47
2022-10-12T16:31:03.855Z,66.66
2022-10-12T16:33:52.466Z,66.97
2022-10-12T16:36:34.932Z,67.20
2022-10-12T16:39:24.544Z,67.92
2022-10-12T16:42:13.939Z,67.66
2022-10-12T16:44:57.540Z,67.48
2022-10-12T16:47:47.832Z,67.14
2022-10-12T16:50:31.482Z,68.23
2022-10-12T16:53:20.827Z,67.74
2022-10-12T16:56:03.526Z,67.22
2022-10-12T16:58:52.484Z,67.82
2022-10-12T17:01:34.839Z,67.71
2022-10-12T17:04:23.530Z,68.11
2022-10-12T17:07:19.315Z,67.77
2022-10-12T17:10:08.468Z,67.86
2022-10-12T17:12:57.411Z,68.07
2022-10-12T17:15:50.468Z,67.24
2022-10-12T17:18:32.890Z,67.18
2022-10-12T17:21:21.718Z,67.41
2022-10-12T17:24:05.830Z,66.53
2022-10-12T17:26:55.470Z,68.09
2022-10-12T17:29:40.621Z,68.99
2022-10-12T17:32:29.564Z,68.78
2022-10-12T17:35:12.975Z,68.05
2022-10-12T17:38:01.474Z,68.34
2022-10-12T17:40:53.543Z,69.28
2022-10-12T17:43:43.830Z,69.21
2022-10-12T17:46:25.496Z,69.92
2022-10-12T17:49:15.510Z,69.80
2022-10-12T17:51:58.046Z,69.72
2022-10-12T17:54:47.494Z,70.23
2022-10-12T17:57:29.941Z,70.58
2022-10-12T18:00:19.874Z,70.29
2022-10-12T18:03:01.956Z,71.15
2022-10-12T18:05:50.452Z,71.44
2022-10-12T18:08:46.533Z,71.73
2022-10-12T18:11:34.744Z,71.29
2022-10-12T18:14:19.484Z,71.68
2022-10-12T18:17:08.572Z,71.85
2022-10-12T18:19:50.841Z,71.89
2022-10-12T18:22:39.605Z,72.28
2022-10-12T18:25:21.925Z,71.67
2022-10-12T18:28:10.525Z,72.34
2022-10-12T18:30:58.873Z,72.91
2022-10-12T18:33:48.509Z,73.08
2022-10-12T18:36:30.781Z,73.05
2022-10-12T18:39:19.518Z,72.54
2022-10-12T18:42:01.844Z,72.84
2022-10-12T18:44:50.446Z,73.07
2022-10-12T18:47:32.980Z,73.50
2022-10-12T18:50:21.472Z,73.41
2022-10-12T18:53:03.925Z,73.36
2022-10-12T18:55:52.480Z,74.12
2022-10-12T18:58:34.900Z,74.12
2022-10-12T19:01:26.456Z,73.47
2022-10-12T19:04:09.842Z,73.33
2022-10-12T19:06:58.462Z,73.29
2022-10-12T19:09:53.830Z,73.56
2022-10-12T19:12:45.836Z,73.93
2022-10-12T19:15:28.468Z,74.33
2022-10-12T19:18:10.644Z,74.31
2022-10-12T19:20:59.502Z,74.39
2022-10-12T19:23:49.757Z,74.42
2022-10-12T19:26:35.475Z,74.22
2022-10-12T19:29:17.713Z,74.14
2022-10-12T19:32:06.544Z,74.73
2022-10-12T19:34:57.812Z,74.51
2022-10-12T19:37:40.529Z,74.74
2022-10-12T19:40:22.695Z,74.33
2022-10-12T19:43:11.509Z,74.98
2022-10-12T19:45:59.746Z,74.52
2022-10-12T19:48:42.561Z,74.39
2022-10-12T19:51:33.587Z,75.05
2022-10-12T19:54:19.453Z,75.13
2022-10-12T19:57:07.758Z,75.02
2022-10-12T19:59:50.526Z,75.69
2022-10-12T20:02:42.247Z,75.92
2022-10-12T20:05:25.483Z,76.11
2022-10-12T20:08:13.725Z,75.80
2022-10-12T20:10:55.820Z,75.60
2022-10-12T20:13:44.716Z,75.96
2022-10-12T20:16:32.488Z,76.05
2022-10-12T20:19:23.789Z,76.34
2022-10-12T20:22:05.433Z,76.38
2022-10-12T20:24:47.618Z,75.95
2022-10-12T20:27:36.448Z,76.63
2022-10-12T20:30:18.763Z,76.51
2022-10-12T20:33:08.437Z,76.76
2022-10-12T20:35:58.380Z,76.87
2022-10-12T20:38:47.443Z,77.18
2022-10-12T20:41:36.643Z,76.96
2022-10-12T20:44:25.445Z,77.25
2022-10-12T20:47:07.621Z,77.07
2022-10-12T20:49:57.513Z,76.87
2022-10-12T20:52:45.743Z,76.84
2022-10-12T20:55:28.482Z,76.95
2022-10-12T20:58:11.788Z,76.41
2022-10-12T21:01:00.459Z,76.70
2022-10-12T21:03:43.487Z,77.40
2022-10-12T21:06:32.502Z,77.40
2022-10-12T21:09:22.744Z,77.11
2022-10-12T21:12:04.740Z,77.42
2022-10-12T21:14:52.720Z,77.30
2022-10-12T21:17:34.434Z,77.23
2022-10-12T21:20:23.438Z,76.92
2022-10-12T21:23:05.722Z,76.67
2022-10-12T21:25:54.493Z,76.76
2022-10-12T21:28:36.770Z,76.39
2022-10-12T21:31:31.007Z,76.67
2022-10-12T21:34:15.824Z,76.54
2022-10-12T21:37:04.475Z,76.69
2022-10-12T21:39:49.576Z,76.52
2022-10-12T21:42:40.486Z,76.91
2022-10-12T21:45:22.696Z,76.09
2022-10-12T21:48:11.434Z,76.47
2022-10-12T21:51:00.426Z,76.59
2022-10-12T21:53:43.159Z,76.52
2022-10-12T21:56:35.433Z,76.40
2022-10-12T21:59:17.652Z,76.61
2022-10-12T22:02:06.610Z,76.81
2022-10-12T22:04:50.701Z,76.98
2022-10-12T22:07:39.439Z,76.57
2022-10-12T22:10:28.337Z,76.99
2022-10-12T22:13:17.427Z,76.51
2022-10-12T22:16:09.015Z,76.89
2022-10-12T22:18:58.418Z,77.01
2022-10-12T22:21:47.471Z,77.33
2022-10-12T22:24:35.765Z,77.19
2022-10-12T22:27:26.457Z,77.39
2022-10-12T22:30:08.730Z,77.55
2022-10-12T22:32:57.488Z,77.10
2022-10-12T22:35:40.717Z,77.29
2022-10-12T22:38:29.419Z,77.58
2022-10-12T22:41:14.720Z,77.54
2022-10-12T22:44:04.399Z,77.52
2022-10-12T22:46:53.423Z,76.95
2022-10-12T22:49:35.613Z,77.21
2022-10-12T22:52:24.450Z,77.54
2022-10-12T22:55:06.976Z,77.07
2022-10-12T22:57:55.462Z,77.29
2022-10-12T23:00:44.798Z,76.98
2022-10-12T23:03:27.409Z,76.85
2022-10-12T23:06:21.343Z,76.82
2022-10-12T23:09:17.415Z,75.92
2022-10-12T23:12:00.598Z,76.21
2022-10-12T23:14:49.422Z,76.35
2022-10-12T23:17:37.709Z,75.91
2022-10-12T23:20:20.468Z,76.14
2022-10-12T23:23:02.672Z,75.82
2022-10-12T23:25:54.432Z,75.91
2022-10-12T23:28:36.677Z,76.49
2022-10-12T23:31:34.476Z,76.24
2022-10-12T23:34:22.749Z,76.00
2022-10-12T23:37:04.404Z,76.17
2022-10-12T23:39:46.601Z,76.04
2022-10-12T23:42:35.479Z,75.82
2022-10-12T23:45:24.722Z,75.64
2022-10-12T23:48:07.417Z,75.94
2022-10-12T23:50:52.832Z,76.15
2022-10-12T23:53:42.420Z,76.03
2022-10-12T23:56:30.676Z,76.24
2022-10-12T23:59:12.482Z,75.69
